sensor_id;sensor_type;location;lat;lon;timestamp;temperature;humidity
15450;DHT22;7826;49.784;9.934;2023-03-23T00:01:05;13.30;99.90
15450;DHT22;7826;49.784;9.934;2023-03-23T00:03:31;13.40;99.90
15450;DHT22;7826;49.784;9.934;2023-03-23T00:05:58;13.40;99.90
15450;DHT22;7826;49.784;9.934;2023-03-23T00:08:33;13.40;99.90
15450;DHT22;7826;49.784;9.934;2023-03-23T00:11:00;13.40;99.90
15450;DHT22;7826;49.784;9.934;2023-03-23T00:13:28;13.40;99.90
15450;DHT22;7826;49.784;9.934;2023-03-23T00:15:54;13.50;99.90
15450;DHT22;7826;49.784;9.934;2023-03-23T00:18:23;13.50;99.90
15450;DHT22;7826;49.784;9.934;2023-03-23T00:20:55;13.60;99.90
15450;DHT22;7826;49.784;9.934;2023-03-23T00:23:24;13.60;99.90
15450;DHT22;7826;49.784;9.934;2023-03-23T00:25:52;13.60;99.90
15450;DHT22;7826;49.784;9.934;2023-03-23T00:28:20;13.60;99.90
15450;DHT22;7826;49.784;9.934;2023-03-23T00:30:57;13.70;99.90
15450;DHT22;7826;49.784;9.934;2023-03-23T00:33:26;13.70;99.90
15450;DHT22;7826;49.784;9.934;2023-03-23T00:35:54;13.70;99.90
15450;DHT22;7826;49.784;9.934;2023-03-23T00:38:22;13.70;99.90
15450;DHT22;7826;49.784;9.934;2023-03-23T00:40:51;13.70;99.90
15450;DHT22;7826;49.784;9.934;2023-03-23T00:43:19;13.80;99.90
15450;DHT22;7826;49.784;9.934;2023-03-23T00:45:46;13.80;99.90
15450;DHT22;7826;49.784;9.934;2023-03-23T00:48:20;13.80;99.90
15450;DHT22;7826;49.784;9.934;2023-03-23T00:50:47;13.80;99.90
15450;DHT22;7826;49.784;9.934;2023-03-23T00:53:14;13.90;99.90
15450;DHT22;7826;49.784;9.934;2023-03-23T00:55:45;13.80;99.90
15450;DHT22;7826;49.784;9.934;2023-03-23T00:58:12;13.90;99.90
15450;DHT22;7826;49.784;9.934;2023-03-23T01:00:39;13.90;99.90
15450;DHT22;7826;49.784;9.934;2023-03-23T01:03:07;13.90;99.90
15450;DHT22;7826;49.784;9.934;2023-03-23T01:05:36;13.90;99.90
15450;DHT22;7826;49.784;9.934;2023-03-23T01:08:03;13.90;99.90
15450;DHT22;7826;49.784;9.934;2023-03-23T01:10:30;13.80;99.90
15450;DHT22;7826;49.784;9.934;2023-03-23T01:13:02;13.90;99.90
15450;DHT22;7826;49.784;9.934;2023-03-23T01:15:29;13.90;99.90
15450;DHT22;7826;49.784;9.934;2023-03-23T01:17:56;13.90;99.90
15450;DHT22;7826;49.784;9.934;2023-03-23T01:20:24;13.80;99.90
15450;DHT22;7826;49.784;9.934;2023-03-23T01:22:50;13.80;99.90
15450;DHT22;7826;49.784;9.934;2023-03-23T01:25:19;13.80;99.90
15450;DHT22;7826;49.784;9.934;2023-03-23T01:27:46;13.80;99.90
15450;DHT22;7826;49.784;9.934;2023-03-23T01:30:13;13.80;99.90
15450;DHT22;7826;49.784;9.934;2023-03-23T01:32:40;13.80;99.90
15450;DHT22;7826;49.784;9.934;2023-03-23T01:35:07;13.80;99.90
15450;DHT22;7826;49.784;9.934;2023-03-23T01:37:34;13.80;99.90
15450;DHT22;7826;49.784;9.934;2023-03-23T01:40:02;13.80;99.90
15450;DHT22;7826;49.784;9.934;2023-03-23T01:42:33;13.80;99.90
15450;DHT22;7826;49.784;9.934;2023-03-23T01:47:47;13.70;99.90
15450;DHT22;7826;49.784;9.934;2023-03-23T01:50:16;13.70;99.90
15450;DHT22;7826;49.784;9.934;2023-03-23T01:52:43;13.70;99.90
15450;DHT22;7826;49.784;9.934;2023-03-23T01:55:10;13.70;99.90
15450;DHT22;7826;49.784;9.934;2023-03-23T01:57:38;13.60;99.90
15450;DHT22;7826;49.784;9.934;2023-03-23T02:00:07;13.60;99.90
15450;DHT22;7826;49.784;9.934;2023-03-23T02:02:38;13.50;99.90
15450;DHT22;7826;49.784;9.934;2023-03-23T02:05:14;13.40;99.90
15450;DHT22;7826;49.784;9.934;2023-03-23T02:07:41;13.40;99.90
15450;DHT22;7826;49.784;9.934;2023-03-23T02:10:08;13.30;99.90
15450;DHT22;7826;49.784;9.934;2023-03-23T02:12:35;13.30;99.90
15450;DHT22;7826;49.784;9.934;2023-03-23T02:15:02;13.30;99.90
15450;DHT22;7826;49.784;9.934;2023-03-23T02:17:41;13.30;99.90
15450;DHT22;7826;49.784;9.934;2023-03-23T02:23:02;13.30;99.90
15450;DHT22;7826;49.784;9.934;2023-03-23T02:33:58;13.30;99.90
15450;DHT22;7826;49.784;9.934;2023-03-23T02:41:58;13.50;99.90
15450;DHT22;7826;49.784;9.934;2023-03-23T02:44:28;13.40;99.90
15450;DHT22;7826;49.784;9.934;2023-03-23T02:46:57;13.50;99.90
15450;DHT22;7826;49.784;9.934;2023-03-23T02:49:27;13.50;99.90
15450;DHT22;7826;49.784;9.934;2023-03-23T02:51:56;13.50;99.90
15450;DHT22;7826;49.784;9.934;2023-03-23T02:54:24;13.50;99.90
15450;DHT22;7826;49.784;9.934;2023-03-23T02:56:53;13.50;99.90
15450;DHT22;7826;49.784;9.934;2023-03-23T02:59:20;13.50;99.90
15450;DHT22;7826;49.784;9.934;2023-03-23T03:04:25;13.40;99.90
15450;DHT22;7826;49.784;9.934;2023-03-23T03:12:33;13.40;99.90
15450;DHT22;7826;49.784;9.934;2023-03-23T03:15:21;13.40;99.90
15450;DHT22;7826;49.784;9.934;2023-03-23T03:18:16;13.30;99.90
15450;DHT22;7826;49.784;9.934;2023-03-23T03:20:50;13.40;99.90
15450;DHT22;7826;49.784;9.934;2023-03-23T03:23:20;13.40;99.90
15450;DHT22;7826;49.784;9.934;2023-03-23T03:25:48;13.40;99.90
15450;DHT22;7826;49.784;9.934;2023-03-23T03:28:18;13.40;99.90
15450;DHT22;7826;49.784;9.934;2023-03-23T03:30:56;13.40;99.90
15450;DHT22;7826;49.784;9.934;2023-03-23T03:33:24;13.40;99.90
15450;DHT22;7826;49.784;9.934;2023-03-23T03:35:54;13.40;99.90
15450;DHT22;7826;49.784;9.934;2023-03-23T03:38:22;13.30;99.90
15450;DHT22;7826;49.784;9.934;2023-03-23T03:40:48;13.30;99.90
15450;DHT22;7826;49.784;9.934;2023-03-23T03:43:14;13.20;99.90
15450;DHT22;7826;49.784;9.934;2023-03-23T03:45:41;13.20;99.90
15450;DHT22;7826;49.784;9.934;2023-03-23T03:48:08;13.20;99.90
15450;DHT22;7826;49.784;9.934;2023-03-23T03:50:34;13.10;99.90
15450;DHT22;7826;49.784;9.934;2023-03-23T03:53:01;13.10;99.90
15450;DHT22;7826;49.784;9.934;2023-03-23T03:55:27;13.10;99.90
15450;DHT22;7826;49.784;9.934;2023-03-23T03:57:54;13.10;99.90
15450;DHT22;7826;49.784;9.934;2023-03-23T04:00:21;13.10;99.90
15450;DHT22;7826;49.784;9.934;2023-03-23T04:02:49;13.10;99.90
15450;DHT22;7826;49.784;9.934;2023-03-23T04:05:21;13.00;99.90
15450;DHT22;7826;49.784;9.934;2023-03-23T04:07:49;13.00;99.90
15450;DHT22;7826;49.784;9.934;2023-03-23T04:10:19;13.00;99.90
15450;DHT22;7826;49.784;9.934;2023-03-23T04:12:48;13.00;99.90
15450;DHT22;7826;49.784;9.934;2023-03-23T04:15:16;13.00;99.90
15450;DHT22;7826;49.784;9.934;2023-03-23T04:17:42;12.90;99.90
15450;DHT22;7826;49.784;9.934;2023-03-23T04:20:09;12.90;99.90
15450;DHT22;7826;49.784;9.934;2023-03-23T04:22:42;12.90;99.90
15450;DHT22;7826;49.784;9.934;2023-03-23T04:25:12;12.90;99.90
15450;DHT22;7826;49.784;9.934;2023-03-23T04:27:39;12.80;99.90
15450;DHT22;7826;49.784;9.934;2023-03-23T04:30:10;12.90;99.90
15450;DHT22;7826;49.784;9.934;2023-03-23T04:32:40;12.90;99.90
15450;DHT22;7826;49.784;9.934;2023-03-23T04:35:13;12.90;99.90
15450;DHT22;7826;49.784;9.934;2023-03-23T04:37:40;12.90;99.90
15450;DHT22;7826;49.784;9.934;2023-03-23T04:40:08;12.90;99.90
15450;DHT22;7826;49.784;9.934;2023-03-23T04:42:38;12.90;99.90
15450;DHT22;7826;49.784;9.934;2023-03-23T04:45:07;12.80;99.90
15450;DHT22;7826;49.784;9.934;2023-03-23T04:47:35;12.80;99.90
15450;DHT22;7826;49.784;9.934;2023-03-23T04:50:08;12.80;99.90
15450;DHT22;7826;49.784;9.934;2023-03-23T04:52:35;12.70;99.90
15450;DHT22;7826;49.784;9.934;2023-03-23T04:55:07;12.70;99.90
15450;DHT22;7826;49.784;9.934;2023-03-23T04:57:34;12.70;99.90
15450;DHT22;7826;49.784;9.934;2023-03-23T05:00:02;12.60;99.90
15450;DHT22;7826;49.784;9.934;2023-03-23T05:02:36;12.70;99.90
15450;DHT22;7826;49.784;9.934;2023-03-23T05:05:02;12.60;99.90
15450;DHT22;7826;49.784;9.934;2023-03-23T05:07:29;12.60;99.90
15450;DHT22;7826;49.784;9.934;2023-03-23T05:09:55;12.60;99.90
15450;DHT22;7826;49.784;9.934;2023-03-23T05:12:21;12.50;99.90
15450;DHT22;7826;49.784;9.934;2023-03-23T05:14:47;12.50;99.90
15450;DHT22;7826;49.784;9.934;2023-03-23T05:17:14;12.50;99.90
15450;DHT22;7826;49.784;9.934;2023-03-23T05:19:43;12.40;99.90
15450;DHT22;7826;49.784;9.934;2023-03-23T05:22:16;12.50;99.90
15450;DHT22;7826;49.784;9.934;2023-03-23T05:24:43;12.50;99.90
15450;DHT22;7826;49.784;9.934;2023-03-23T05:27:10;12.50;99.90
15450;DHT22;7826;49.784;9.934;2023-03-23T05:29:37;12.50;99.90
15450;DHT22;7826;49.784;9.934;2023-03-23T05:32:04;12.50;99.90
15450;DHT22;7826;49.784;9.934;2023-03-23T05:34:31;12.50;99.90
15450;DHT22;7826;49.784;9.934;2023-03-23T05:36:59;12.50;99.90
15450;DHT22;7826;49.784;9.934;2023-03-23T05:39:27;12.50;99.90
15450;DHT22;7826;49.784;9.934;2023-03-23T05:41:54;12.50;99.90
15450;DHT22;7826;49.784;9.934;2023-03-23T05:44:20;12.50;99.90
15450;DHT22;7826;49.784;9.934;2023-03-23T05:46:46;12.50;99.90
15450;DHT22;7826;49.784;9.934;2023-03-23T05:49:14;12.60;99.90
15450;DHT22;7826;49.784;9.934;2023-03-23T05:51:43;12.50;99.90
15450;DHT22;7826;49.784;9.934;2023-03-23T05:54:10;12.40;99.90
15450;DHT22;7826;49.784;9.934;2023-03-23T05:56:37;12.40;99.90
15450;DHT22;7826;49.784;9.934;2023-03-23T05:59:03;12.30;99.90
15450;DHT22;7826;49.784;9.934;2023-03-23T06:01:30;12.30;99.90
15450;DHT22;7826;49.784;9.934;2023-03-23T06:03:57;12.30;99.90
15450;DHT22;7826;49.784;9.934;2023-03-23T06:06:28;12.20;99.90
15450;DHT22;7826;49.784;9.934;2023-03-23T06:08:56;12.20;99.90
15450;DHT22;7826;49.784;9.934;2023-03-23T06:11:23;12.20;99.90
15450;DHT22;7826;49.784;9.934;2023-03-23T06:13:50;12.20;99.90
15450;DHT22;7826;49.784;9.934;2023-03-23T06:16:16;12.20;99.90
15450;DHT22;7826;49.784;9.934;2023-03-23T06:18:43;12.30;99.90
15450;DHT22;7826;49.784;9.934;2023-03-23T06:21:10;12.20;99.90
15450;DHT22;7826;49.784;9.934;2023-03-23T06:23:37;12.20;99.90
15450;DHT22;7826;49.784;9.934;2023-03-23T06:26:06;12.10;99.90
15450;DHT22;7826;49.784;9.934;2023-03-23T06:28:34;12.20;99.90
15450;DHT22;7826;49.784;9.934;2023-03-23T06:31:02;12.20;99.90
15450;DHT22;7826;49.784;9.934;2023-03-23T06:33:31;12.20;99.90
15450;DHT22;7826;49.784;9.934;2023-03-23T06:35:57;12.20;99.90
15450;DHT22;7826;49.784;9.934;2023-03-23T06:38:26;12.20;99.90
15450;DHT22;7826;49.784;9.934;2023-03-23T06:40:53;12.20;99.90
15450;DHT22;7826;49.784;9.934;2023-03-23T06:43:19;12.20;99.90
15450;DHT22;7826;49.784;9.934;2023-03-23T06:45:46;12.20;99.90
15450;DHT22;7826;49.784;9.934;2023-03-23T06:48:12;12.20;99.90
15450;DHT22;7826;49.784;9.934;2023-03-23T06:50:42;12.20;99.90
15450;DHT22;7826;49.784;9.934;2023-03-23T06:53:09;12.30;99.90
15450;DHT22;7826;49.784;9.934;2023-03-23T06:55:36;12.30;99.90
15450;DHT22;7826;49.784;9.934;2023-03-23T06:58:02;12.40;99.90
15450;DHT22;7826;49.784;9.934;2023-03-23T07:00:29;12.40;99.90
15450;DHT22;7826;49.784;9.934;2023-03-23T07:02:55;12.50;99.90
15450;DHT22;7826;49.784;9.934;2023-03-23T07:05:22;12.60;99.90
15450;DHT22;7826;49.784;9.934;2023-03-23T07:07:48;12.80;99.90
15450;DHT22;7826;49.784;9.934;2023-03-23T07:10:14;12.80;99.90
15450;DHT22;7826;49.784;9.934;2023-03-23T07:12:40;13.00;99.90
15450;DHT22;7826;49.784;9.934;2023-03-23T07:15:08;13.10;99.90
15450;DHT22;7826;49.784;9.934;2023-03-23T07:17:37;13.30;99.90
15450;DHT22;7826;49.784;9.934;2023-03-23T07:20:05;13.30;99.90
15450;DHT22;7826;49.784;9.934;2023-03-23T07:22:32;13.40;99.90
15450;DHT22;7826;49.784;9.934;2023-03-23T07:24:58;13.40;99.90
15450;DHT22;7826;49.784;9.934;2023-03-23T07:27:25;13.40;99.90
15450;DHT22;7826;49.784;9.934;2023-03-23T07:29:51;13.50;99.90
15450;DHT22;7826;49.784;9.934;2023-03-23T07:32:18;13.50;99.90
15450;DHT22;7826;49.784;9.934;2023-03-23T07:34:44;13.60;99.90
15450;DHT22;7826;49.784;9.934;2023-03-23T07:37:10;13.60;99.90
15450;DHT22;7826;49.784;9.934;2023-03-23T07:39:37;13.60;99.90
15450;DHT22;7826;49.784;9.934;2023-03-23T07:42:03;13.70;99.90
15450;DHT22;7826;49.784;9.934;2023-03-23T07:44:29;13.80;99.90
15450;DHT22;7826;49.784;9.934;2023-03-23T07:46:56;13.90;99.90
15450;DHT22;7826;49.784;9.934;2023-03-23T07:49:22;14.00;99.90
15450;DHT22;7826;49.784;9.934;2023-03-23T07:51:48;14.00;99.90
15450;DHT22;7826;49.784;9.934;2023-03-23T07:54:15;14.10;99.90
15450;DHT22;7826;49.784;9.934;2023-03-23T07:56:42;14.10;99.90
15450;DHT22;7826;49.784;9.934;2023-03-23T07:59:11;14.20;99.90
15450;DHT22;7826;49.784;9.934;2023-03-23T08:01:39;14.20;99.90
15450;DHT22;7826;49.784;9.934;2023-03-23T08:04:05;14.30;99.90
15450;DHT22;7826;49.784;9.934;2023-03-23T08:06:34;14.30;99.90
15450;DHT22;7826;49.784;9.934;2023-03-23T08:09:00;14.30;99.90
15450;DHT22;7826;49.784;9.934;2023-03-23T08:11:37;14.30;99.90
15450;DHT22;7826;49.784;9.934;2023-03-23T08:14:04;14.40;99.90
15450;DHT22;7826;49.784;9.934;2023-03-23T08:16:32;14.40;99.90
15450;DHT22;7826;49.784;9.934;2023-03-23T08:18:59;14.30;99.90
15450;DHT22;7826;49.784;9.934;2023-03-23T08:21:26;14.30;99.90
15450;DHT22;7826;49.784;9.934;2023-03-23T08:23:53;14.30;99.90
15450;DHT22;7826;49.784;9.934;2023-03-23T08:26:19;14.20;99.90
15450;DHT22;7826;49.784;9.934;2023-03-23T08:28:46;14.20;99.90
15450;DHT22;7826;49.784;9.934;2023-03-23T08:31:14;14.10;99.90
15450;DHT22;7826;49.784;9.934;2023-03-23T08:33:40;14.10;99.90
15450;DHT22;7826;49.784;9.934;2023-03-23T08:36:08;14.00;99.90
15450;DHT22;7826;49.784;9.934;2023-03-23T08:38:57;14.00;99.90
15450;DHT22;7826;49.784;9.934;2023-03-23T08:41:24;13.90;99.90
15450;DHT22;7826;49.784;9.934;2023-03-23T08:43:51;13.90;99.90
15450;DHT22;7826;49.784;9.934;2023-03-23T08:46:18;13.90;99.90
15450;DHT22;7826;49.784;9.934;2023-03-23T08:48:46;13.80;99.90
15450;DHT22;7826;49.784;9.934;2023-03-23T08:51:12;13.70;99.90
15450;DHT22;7826;49.784;9.934;2023-03-23T08:53:39;13.70;99.90
15450;DHT22;7826;49.784;9.934;2023-03-23T08:56:07;13.70;99.90
15450;DHT22;7826;49.784;9.934;2023-03-23T08:58:37;13.60;99.90
15450;DHT22;7826;49.784;9.934;2023-03-23T09:01:04;13.60;99.90
15450;DHT22;7826;49.784;9.934;2023-03-23T09:03:33;13.70;99.90
15450;DHT22;7826;49.784;9.934;2023-03-23T09:06:02;13.70;99.90
15450;DHT22;7826;49.784;9.934;2023-03-23T09:08:29;13.70;99.90
15450;DHT22;7826;49.784;9.934;2023-03-23T09:10:59;13.80;99.90
15450;DHT22;7826;49.784;9.934;2023-03-23T09:13:26;13.80;99.90
15450;DHT22;7826;49.784;9.934;2023-03-23T09:15:52;13.80;99.90
15450;DHT22;7826;49.784;9.934;2023-03-23T09:18:19;13.80;99.90
15450;DHT22;7826;49.784;9.934;2023-03-23T09:20:46;13.80;99.90
15450;DHT22;7826;49.784;9.934;2023-03-23T09:23:14;13.70;99.90
15450;DHT22;7826;49.784;9.934;2023-03-23T09:25:41;13.70;99.90
15450;DHT22;7826;49.784;9.934;2023-03-23T09:28:07;13.70;99.90
15450;DHT22;7826;49.784;9.934;2023-03-23T09:30:35;13.80;99.90
15450;DHT22;7826;49.784;9.934;2023-03-23T09:33:03;13.80;99.90
15450;DHT22;7826;49.784;9.934;2023-03-23T09:35:32;13.90;99.90
15450;DHT22;7826;49.784;9.934;2023-03-23T09:38:00;14.00;99.90
15450;DHT22;7826;49.784;9.934;2023-03-23T09:40:45;14.10;99.90
15450;DHT22;7826;49.784;9.934;2023-03-23T09:46:22;14.30;99.90
15450;DHT22;7826;49.784;9.934;2023-03-23T09:49:01;14.40;99.90
15450;DHT22;7826;49.784;9.934;2023-03-23T09:54:27;14.60;99.90
15450;DHT22;7826;49.784;9.934;2023-03-23T09:56:56;14.60;99.90
15450;DHT22;7826;49.784;9.934;2023-03-23T09:59:45;14.60;99.90
15450;DHT22;7826;49.784;9.934;2023-03-23T10:02:18;14.60;99.90
15450;DHT22;7826;49.784;9.934;2023-03-23T10:04:51;14.50;99.90
15450;DHT22;7826;49.784;9.934;2023-03-23T10:07:20;14.50;99.90
15450;DHT22;7826;49.784;9.934;2023-03-23T10:09:50;14.60;99.90
15450;DHT22;7826;49.784;9.934;2023-03-23T10:12:40;14.60;99.90
15450;DHT22;7826;49.784;9.934;2023-03-23T10:15:28;14.70;99.90
15450;DHT22;7826;49.784;9.934;2023-03-23T10:18:08;14.80;99.90
15450;DHT22;7826;49.784;9.934;2023-03-23T10:20:48;14.90;99.90
15450;DHT22;7826;49.784;9.934;2023-03-23T10:26:47;14.90;99.90
15450;DHT22;7826;49.784;9.934;2023-03-23T10:28:51;14.90;99.90
15450;DHT22;7826;49.784;9.934;2023-03-23T10:31:27;14.80;99.90
15450;DHT22;7826;49.784;9.934;2023-03-23T10:33:57;14.90;99.90
15450;DHT22;7826;49.784;9.934;2023-03-23T10:36:29;15.10;99.90
15450;DHT22;7826;49.784;9.934;2023-03-23T10:39:02;15.30;99.90
15450;DHT22;7826;49.784;9.934;2023-03-23T10:41:30;15.30;99.90
15450;DHT22;7826;49.784;9.934;2023-03-23T10:43:57;15.40;99.90
15450;DHT22;7826;49.784;9.934;2023-03-23T10:46:45;15.40;99.90
15450;DHT22;7826;49.784;9.934;2023-03-23T10:50:00;15.60;99.90
15450;DHT22;7826;49.784;9.934;2023-03-23T10:52:34;15.80;99.90
15450;DHT22;7826;49.784;9.934;2023-03-23T10:55:14;16.00;99.90
15450;DHT22;7826;49.784;9.934;2023-03-23T10:57:44;16.30;99.90
15450;DHT22;7826;49.784;9.934;2023-03-23T11:00:25;16.70;99.90
15450;DHT22;7826;49.784;9.934;2023-03-23T11:03:01;16.90;99.90
15450;DHT22;7826;49.784;9.934;2023-03-23T11:05:45;17.00;99.90
15450;DHT22;7826;49.784;9.934;2023-03-23T11:08:16;17.10;99.90
15450;DHT22;7826;49.784;9.934;2023-03-23T11:10:52;17.20;99.90
15450;DHT22;7826;49.784;9.934;2023-03-23T11:13:21;17.20;99.90
15450;DHT22;7826;49.784;9.934;2023-03-23T11:15:48;17.20;99.90
15450;DHT22;7826;49.784;9.934;2023-03-23T11:18:24;17.00;99.90
15450;DHT22;7826;49.784;9.934;2023-03-23T11:20:56;16.90;99.90
15450;DHT22;7826;49.784;9.934;2023-03-23T11:23:32;16.90;99.90
15450;DHT22;7826;49.784;9.934;2023-03-23T11:26:36;16.80;99.90
15450;DHT22;7826;49.784;9.934;2023-03-23T11:29:20;16.80;99.90
15450;DHT22;7826;49.784;9.934;2023-03-23T11:31:50;16.80;99.90
15450;DHT22;7826;49.784;9.934;2023-03-23T11:34:32;16.70;99.90
15450;DHT22;7826;49.784;9.934;2023-03-23T11:37:06;16.70;99.90
15450;DHT22;7826;49.784;9.934;2023-03-23T11:39:45;16.60;99.90
15450;DHT22;7826;49.784;9.934;2023-03-23T11:42:18;16.60;99.90
15450;DHT22;7826;49.784;9.934;2023-03-23T11:44:45;16.40;99.90
15450;DHT22;7826;49.784;9.934;2023-03-23T11:50:18;16.20;99.90
15450;DHT22;7826;49.784;9.934;2023-03-23T11:53:08;16.20;99.90
15450;DHT22;7826;49.784;9.934;2023-03-23T11:58:14;16.20;99.90
15450;DHT22;7826;49.784;9.934;2023-03-23T12:06:36;16.50;99.90
15450;DHT22;7826;49.784;9.934;2023-03-23T12:09:23;16.50;99.90
15450;DHT22;7826;49.784;9.934;2023-03-23T12:15:16;16.20;99.90
15450;DHT22;7826;49.784;9.934;2023-03-23T12:20:55;15.90;99.90
15450;DHT22;7826;49.784;9.934;2023-03-23T12:23:45;15.80;99.90
15450;DHT22;7826;49.784;9.934;2023-03-23T12:26:21;15.70;99.90
15450;DHT22;7826;49.784;9.934;2023-03-23T12:29:04;15.70;99.90
15450;DHT22;7826;49.784;9.934;2023-03-23T12:50:32;15.50;99.90
15450;DHT22;7826;49.784;9.934;2023-03-23T12:53:11;15.80;99.90
15450;DHT22;7826;49.784;9.934;2023-03-23T12:55:45;16.00;99.90
15450;DHT22;7826;49.784;9.934;2023-03-23T12:58:28;16.10;99.90
15450;DHT22;7826;49.784;9.934;2023-03-23T13:01:04;16.10;99.90
15450;DHT22;7826;49.784;9.934;2023-03-23T13:11:37;16.40;99.90
15450;DHT22;7826;49.784;9.934;2023-03-23T13:17:09;16.30;99.90
15450;DHT22;7826;49.784;9.934;2023-03-23T13:28:27;16.40;99.90
15450;DHT22;7826;49.784;9.934;2023-03-23T13:30:57;16.60;99.90
15450;DHT22;7826;49.784;9.934;2023-03-23T13:33:24;16.70;99.90
15450;DHT22;7826;49.784;9.934;2023-03-23T13:35:52;16.80;99.90
15450;DHT22;7826;49.784;9.934;2023-03-23T13:38:27;17.00;99.90
15450;DHT22;7826;49.784;9.934;2023-03-23T13:40:55;17.10;99.90
15450;DHT22;7826;49.784;9.934;2023-03-23T13:43:28;16.90;99.90
15450;DHT22;7826;49.784;9.934;2023-03-23T13:45:55;17.00;99.90
15450;DHT22;7826;49.784;9.934;2023-03-23T13:51:46;16.90;99.90
15450;DHT22;7826;49.784;9.934;2023-03-23T13:56:47;16.80;99.90
15450;DHT22;7826;49.784;9.934;2023-03-23T14:01:54;16.80;99.90
15450;DHT22;7826;49.784;9.934;2023-03-23T14:04:23;16.60;99.90
15450;DHT22;7826;49.784;9.934;2023-03-23T14:06:51;16.50;99.90
15450;DHT22;7826;49.784;9.934;2023-03-23T14:09:27;16.40;99.90
15450;DHT22;7826;49.784;9.934;2023-03-23T14:12:01;16.30;99.90
15450;DHT22;7826;49.784;9.934;2023-03-23T14:14:41;16.30;99.90
15450;DHT22;7826;49.784;9.934;2023-03-23T14:17:44;16.20;99.90
15450;DHT22;7826;49.784;9.934;2023-03-23T14:20:05;16.20;99.90
15450;DHT22;7826;49.784;9.934;2023-03-23T14:22:35;16.30;99.90
15450;DHT22;7826;49.784;9.934;2023-03-23T14:25:02;16.40;99.90
15450;DHT22;7826;49.784;9.934;2023-03-23T14:27:35;16.40;99.90
15450;DHT22;7826;49.784;9.934;2023-03-23T14:30:34;16.40;99.90
15450;DHT22;7826;49.784;9.934;2023-03-23T14:33:06;16.40;99.90
15450;DHT22;7826;49.784;9.934;2023-03-23T14:35:37;16.30;99.90
15450;DHT22;7826;49.784;9.934;2023-03-23T14:38:11;16.30;99.90
15450;DHT22;7826;49.784;9.934;2023-03-23T14:40:40;16.10;99.90
15450;DHT22;7826;49.784;9.934;2023-03-23T14:43:10;16.00;99.90
15450;DHT22;7826;49.784;9.934;2023-03-23T14:45:39;15.90;99.90
15450;DHT22;7826;49.784;9.934;2023-03-23T14:48:07;15.80;99.90
15450;DHT22;7826;49.784;9.934;2023-03-23T14:50:48;15.80;99.90
15450;DHT22;7826;49.784;9.934;2023-03-23T14:53:40;15.70;99.90
15450;DHT22;7826;49.784;9.934;2023-03-23T14:56:14;15.90;99.90
15450;DHT22;7826;49.784;9.934;2023-03-23T14:58:50;15.90;99.90
15450;DHT22;7826;49.784;9.934;2023-03-23T15:03:58;15.90;99.90
15450;DHT22;7826;49.784;9.934;2023-03-23T15:06:28;15.90;99.90
15450;DHT22;7826;49.784;9.934;2023-03-23T15:08:59;15.80;99.90
15450;DHT22;7826;49.784;9.934;2023-03-23T15:11:34;15.80;99.90
15450;DHT22;7826;49.784;9.934;2023-03-23T15:14:23;15.70;99.90
15450;DHT22;7826;49.784;9.934;2023-03-23T15:16:52;15.40;99.90
15450;DHT22;7826;49.784;9.934;2023-03-23T15:19:28;15.40;99.90
15450;DHT22;7826;49.784;9.934;2023-03-23T15:22:21;15.30;99.90
15450;DHT22;7826;49.784;9.934;2023-03-23T15:24:49;15.30;99.90
15450;DHT22;7826;49.784;9.934;2023-03-23T15:27:27;15.20;99.90
15450;DHT22;7826;49.784;9.934;2023-03-23T15:29:58;15.20;99.90
15450;DHT22;7826;49.784;9.934;2023-03-23T15:32:39;15.10;99.90
15450;DHT22;7826;49.784;9.934;2023-03-23T15:35:25;15.00;99.90
15450;DHT22;7826;49.784;9.934;2023-03-23T15:37:58;15.00;99.90
15450;DHT22;7826;49.784;9.934;2023-03-23T15:40:26;14.90;99.90
15450;DHT22;7826;49.784;9.934;2023-03-23T15:43:30;15.00;99.90
15450;DHT22;7826;49.784;9.934;2023-03-23T15:51:29;14.90;99.90
15450;DHT22;7826;49.784;9.934;2023-03-23T15:54:14;14.90;99.90
15450;DHT22;7826;49.784;9.934;2023-03-23T15:56:42;14.90;99.90
15450;DHT22;7826;49.784;9.934;2023-03-23T15:59:10;15.00;99.90
15450;DHT22;7826;49.784;9.934;2023-03-23T16:01:39;15.00;99.90
15450;DHT22;7826;49.784;9.934;2023-03-23T16:04:13;15.10;99.90
15450;DHT22;7826;49.784;9.934;2023-03-23T16:06:40;15.10;99.90
15450;DHT22;7826;49.784;9.934;2023-03-23T16:09:11;15.20;99.90
15450;DHT22;7826;49.784;9.934;2023-03-23T16:11:38;15.20;99.90
15450;DHT22;7826;49.784;9.934;2023-03-23T16:14:05;15.20;99.90
15450;DHT22;7826;49.784;9.934;2023-03-23T16:16:34;15.20;99.90
15450;DHT22;7826;49.784;9.934;2023-03-23T16:19:02;15.20;99.90
15450;DHT22;7826;49.784;9.934;2023-03-23T16:21:29;15.20;99.90
15450;DHT22;7826;49.784;9.934;2023-03-23T16:23:56;15.20;99.90
15450;DHT22;7826;49.784;9.934;2023-03-23T16:26:22;15.10;99.90
15450;DHT22;7826;49.784;9.934;2023-03-23T16:28:49;15.10;99.90
15450;DHT22;7826;49.784;9.934;2023-03-23T16:31:15;15.10;99.90
15450;DHT22;7826;49.784;9.934;2023-03-23T16:33:42;15.10;99.90
15450;DHT22;7826;49.784;9.934;2023-03-23T16:36:11;15.10;99.90
15450;DHT22;7826;49.784;9.934;2023-03-23T16:38:38;15.10;99.90
15450;DHT22;7826;49.784;9.934;2023-03-23T16:41:05;15.00;99.90
15450;DHT22;7826;49.784;9.934;2023-03-23T16:43:31;15.00;99.90
15450;DHT22;7826;49.784;9.934;2023-03-23T16:45:57;15.00;99.90
15450;DHT22;7826;49.784;9.934;2023-03-23T16:48:24;15.00;99.90
15450;DHT22;7826;49.784;9.934;2023-03-23T16:50:52;14.90;99.90
15450;DHT22;7826;49.784;9.934;2023-03-23T16:53:20;14.90;99.90
15450;DHT22;7826;49.784;9.934;2023-03-23T16:55:49;14.90;99.90
15450;DHT22;7826;49.784;9.934;2023-03-23T16:58:16;14.80;99.90
15450;DHT22;7826;49.784;9.934;2023-03-23T17:00:43;14.80;99.90
15450;DHT22;7826;49.784;9.934;2023-03-23T17:03:10;14.80;99.90
15450;DHT22;7826;49.784;9.934;2023-03-23T17:05:36;14.80;99.90
15450;DHT22;7826;49.784;9.934;2023-03-23T17:08:03;14.80;99.90
15450;DHT22;7826;49.784;9.934;2023-03-23T17:10:30;14.70;99.90
15450;DHT22;7826;49.784;9.934;2023-03-23T17:12:57;14.70;99.90
15450;DHT22;7826;49.784;9.934;2023-03-23T17:15:23;14.70;99.90
15450;DHT22;7826;49.784;9.934;2023-03-23T17:17:52;14.70;99.90
15450;DHT22;7826;49.784;9.934;2023-03-23T17:20:20;14.70;99.90
15450;DHT22;7826;49.784;9.934;2023-03-23T17:22:46;14.60;99.90
15450;DHT22;7826;49.784;9.934;2023-03-23T17:25:13;14.60;99.90
15450;DHT22;7826;49.784;9.934;2023-03-23T17:27:39;14.50;99.90
15450;DHT22;7826;49.784;9.934;2023-03-23T17:30:07;14.50;99.90
15450;DHT22;7826;49.784;9.934;2023-03-23T17:32:34;14.50;99.90
15450;DHT22;7826;49.784;9.934;2023-03-23T17:35:03;14.50;99.90
15450;DHT22;7826;49.784;9.934;2023-03-23T17:37:31;14.40;99.90
15450;DHT22;7826;49.784;9.934;2023-03-23T17:39:57;14.40;99.90
15450;DHT22;7826;49.784;9.934;2023-03-23T17:42:23;14.40;99.90
15450;DHT22;7826;49.784;9.934;2023-03-23T17:44:50;14.40;99.90
15450;DHT22;7826;49.784;9.934;2023-03-23T17:47:16;14.30;99.90
15450;DHT22;7826;49.784;9.934;2023-03-23T17:49:42;14.30;99.90
15450;DHT22;7826;49.784;9.934;2023-03-23T17:52:09;14.30;99.90
15450;DHT22;7826;49.784;9.934;2023-03-23T17:54:35;14.30;99.90